sensor_id;sensor_type;location;lat;lon;timestamp;P1;durP1;ratioP1;P2;durP2;ratioP2
2390;SDS011;22957;50.824;4.360;2022-09-13T00:01:44;1.70;;;1.30;;
2390;SDS011;22957;50.824;4.360;2022-09-13T00:04:10;3.20;;;1.50;;
2390;SDS011;22957;50.824;4.360;2022-09-13T00:06:36;3.50;;;1.40;;
2390;SDS011;22957;50.824;4.360;2022-09-13T00:09:01;2.30;;;1.40;;
2390;SDS011;22957;50.824;4.360;2022-09-13T00:11:28;1.87;;;1.10;;
2390;SDS011;22957;50.824;4.360;2022-09-13T00:13:55;1.93;;;1.30;;
2390;SDS011;22957;50.824;4.360;2022-09-13T00:16:23;2.70;;;1.47;;
2390;SDS011;22957;50.824;4.360;2022-09-13T00:18:50;1.60;;;1.40;;
2390;SDS011;22957;50.824;4.360;2022-09-13T00:21:17;2.27;;;1.30;;
2390;SDS011;22957;50.824;4.360;2022-09-13T00:23:45;3.03;;;1.40;;
2390;SDS011;22957;50.824;4.360;2022-09-13T00:26:13;6.50;;;1.57;;
2390;SDS011;22957;50.824;4.360;2022-09-13T00:28:40;2.23;;;1.30;;
2390;SDS011;22957;50.824;4.360;2022-09-13T00:31:07;2.43;;;1.20;;
2390;SDS011;22957;50.824;4.360;2022-09-13T00:33:34;2.27;;;1.30;;
2390;SDS011;22957;50.824;4.360;2022-09-13T00:36:07;2.60;;;1.20;;
2390;SDS011;22957;50.824;4.360;2022-09-13T00:38:35;2.43;;;1.30;;
2390;SDS011;22957;50.824;4.360;2022-09-13T00:41:02;2.33;;;1.73;;
2390;SDS011;22957;50.824;4.360;2022-09-13T00:48:56;1.90;;;1.30;;
2390;SDS011;22957;50.824;4.360;2022-09-13T00:51:51;3.40;;;1.30;;
2390;SDS011;22957;50.824;4.360;2022-09-13T00:54:21;2.70;;;1.27;;
2390;SDS011;22957;50.824;4.360;2022-09-13T00:56:51;3.83;;;1.20;;
2390;SDS011;22957;50.824;4.360;2022-09-13T00:59:25;1.97;;;1.07;;
2390;SDS011;22957;50.824;4.360;2022-09-13T01:01:56;6.53;;;1.47;;
2390;SDS011;22957;50.824;4.360;2022-09-13T01:04:25;2.60;;;1.30;;
2390;SDS011;22957;50.824;4.360;2022-09-13T01:06:53;1.20;;;1.10;;
2390;SDS011;22957;50.824;4.360;2022-09-13T01:09:22;2.47;;;1.20;;
2390;SDS011;22957;50.824;4.360;2022-09-13T01:11:52;2.23;;;1.30;;
2390;SDS011;22957;50.824;4.360;2022-09-13T01:14:28;1.10;;;0.93;;
2390;SDS011;22957;50.824;4.360;2022-09-13T01:16:55;7.00;;;1.43;;
2390;SDS011;22957;50.824;4.360;2022-09-13T01:19:21;3.00;;;1.13;;
2390;SDS011;22957;50.824;4.360;2022-09-13T01:31:00;2.90;;;0.90;;
2390;SDS011;22957;50.824;4.360;2022-09-13T01:39:27;1.40;;;1.13;;
2390;SDS011;22957;50.824;4.360;2022-09-13T01:42:10;2.87;;;1.20;;
2390;SDS011;22957;50.824;4.360;2022-09-13T01:45:02;1.93;;;1.00;;
2390;SDS011;22957;50.824;4.360;2022-09-13T01:48:09;2.57;;;1.10;;
2390;SDS011;22957;50.824;4.360;2022-09-13T01:50:51;2.73;;;1.20;;
2390;SDS011;22957;50.824;4.360;2022-09-13T01:56:26;1.97;;;1.20;;
2390;SDS011;22957;50.824;4.360;2022-09-13T02:01:46;1.30;;;1.10;;
2390;SDS011;22957;50.824;4.360;2022-09-13T02:04:32;1.60;;;1.00;;
2390;SDS011;22957;50.824;4.360;2022-09-13T02:09:34;2.43;;;1.00;;
2390;SDS011;22957;50.824;4.360;2022-09-13T02:12:08;1.77;;;1.10;;
2390;SDS011;22957;50.824;4.360;2022-09-13T02:14:39;2.10;;;1.23;;
2390;SDS011;22957;50.824;4.360;2022-09-13T02:17:12;3.00;;;1.40;;
2390;SDS011;22957;50.824;4.360;2022-09-13T02:19:50;1.83;;;0.90;;
2390;SDS011;22957;50.824;4.360;2022-09-13T02:22:21;2.53;;;1.30;;
2390;SDS011;22957;50.824;4.360;2022-09-13T02:24:52;2.73;;;1.37;;
2390;SDS011;22957;50.824;4.360;2022-09-13T02:27:22;1.70;;;1.17;;
2390;SDS011;22957;50.824;4.360;2022-09-13T02:29:52;2.17;;;1.00;;
2390;SDS011;22957;50.824;4.360;2022-09-13T02:32:27;1.50;;;1.10;;
2390;SDS011;22957;50.824;4.360;2022-09-13T02:35:02;2.80;;;1.20;;
2390;SDS011;22957;50.824;4.360;2022-09-13T02:37:51;2.20;;;1.50;;
2390;SDS011;22957;50.824;4.360;2022-09-13T02:40:25;1.50;;;1.20;;
2390;SDS011;22957;50.824;4.360;2022-09-13T02:46:13;2.77;;;1.10;;
2390;SDS011;22957;50.824;4.360;2022-09-13T02:49:05;6.73;;;1.40;;
2390;SDS011;22957;50.824;4.360;2022-09-13T02:51:48;1.93;;;1.10;;
2390;SDS011;22957;50.824;4.360;2022-09-13T02:54:32;1.40;;;1.20;;
2390;SDS011;22957;50.824;4.360;2022-09-13T02:59:37;2.80;;;1.50;;
2390;SDS011;22957;50.824;4.360;2022-09-13T03:02:11;1.80;;;1.40;;
2390;SDS011;22957;50.824;4.360;2022-09-13T03:04:39;6.13;;;1.57;;
2390;SDS011;22957;50.824;4.360;2022-09-13T03:07:07;4.07;;;1.30;;
2390;SDS011;22957;50.824;4.360;2022-09-13T03:09:35;1.60;;;1.23;;
2390;SDS011;22957;50.824;4.360;2022-09-13T03:12:12;4.97;;;1.47;;
2390;SDS011;22957;50.824;4.360;2022-09-13T03:14:55;2.17;;;1.30;;
2390;SDS011;22957;50.824;4.360;2022-09-13T03:17:45;1.47;;;1.30;;
2390;SDS011;22957;50.824;4.360;2022-09-13T03:20:34;2.43;;;1.80;;
2390;SDS011;22957;50.824;4.360;2022-09-13T03:28:45;2.60;;;1.70;;
2390;SDS011;22957;50.824;4.360;2022-09-13T03:31:20;5.53;;;1.70;;
2390;SDS011;22957;50.824;4.360;2022-09-13T03:34:21;2.80;;;1.50;;
2390;SDS011;22957;50.824;4.360;2022-09-13T03:36:56;4.30;;;1.77;;
2390;SDS011;22957;50.824;4.360;2022-09-13T03:39:37;1.53;;;1.33;;
2390;SDS011;22957;50.824;4.360;2022-09-13T03:42:11;2.13;;;1.63;;
2390;SDS011;22957;50.824;4.360;2022-09-13T03:44:47;2.17;;;1.40;;
2390;SDS011;22957;50.824;4.360;2022-09-13T03:47:16;2.80;;;1.60;;
2390;SDS011;22957;50.824;4.360;2022-09-13T03:49:43;3.77;;;1.50;;
2390;SDS011;22957;50.824;4.360;2022-09-13T03:52:10;2.10;;;1.60;;
2390;SDS011;22957;50.824;4.360;2022-09-13T03:54:36;2.07;;;1.47;;
2390;SDS011;22957;50.824;4.360;2022-09-13T03:57:12;3.30;;;1.90;;
2390;SDS011;22957;50.824;4.360;2022-09-13T03:59:55;3.77;;;1.60;;
2390;SDS011;22957;50.824;4.360;2022-09-13T04:02:24;2.67;;;1.70;;
2390;SDS011;22957;50.824;4.360;2022-09-13T04:04:53;2.70;;;1.70;;
2390;SDS011;22957;50.824;4.360;2022-09-13T04:07:26;3.13;;;1.70;;
2390;SDS011;22957;50.824;4.360;2022-09-13T04:09:54;4.83;;;1.70;;
2390;SDS011;22957;50.824;4.360;2022-09-13T04:12:35;3.80;;;1.60;;
2390;SDS011;22957;50.824;4.360;2022-09-13T04:15:07;1.90;;;1.53;;
2390;SDS011;22957;50.824;4.360;2022-09-13T04:18:00;5.87;;;1.90;;
2390;SDS011;22957;50.824;4.360;2022-09-13T04:20:30;4.40;;;1.53;;
2390;SDS011;22957;50.824;4.360;2022-09-13T04:22:57;2.77;;;1.77;;
2390;SDS011;22957;50.824;4.360;2022-09-13T04:25:24;3.73;;;1.60;;
2390;SDS011;22957;50.824;4.360;2022-09-13T04:27:56;2.23;;;1.60;;
2390;SDS011;22957;50.824;4.360;2022-09-13T04:30:35;2.23;;;1.80;;
2390;SDS011;22957;50.824;4.360;2022-09-13T04:33:26;5.53;;;1.63;;
2390;SDS011;22957;50.824;4.360;2022-09-13T04:35:53;2.97;;;1.57;;
2390;SDS011;22957;50.824;4.360;2022-09-13T04:38:37;3.13;;;1.47;;
2390;SDS011;22957;50.824;4.360;2022-09-13T04:41:10;3.17;;;1.80;;
2390;SDS011;22957;50.824;4.360;2022-09-13T04:43:37;4.53;;;1.50;;
2390;SDS011;22957;50.824;4.360;2022-09-13T04:46:06;2.57;;;1.87;;
2390;SDS011;22957;50.824;4.360;2022-09-13T04:48:57;3.10;;;1.30;;
2390;SDS011;22957;50.824;4.360;2022-09-13T04:52:20;2.70;;;1.87;;
2390;SDS011;22957;50.824;4.360;2022-09-13T04:54:51;2.73;;;1.60;;
2390;SDS011;22957;50.824;4.360;2022-09-13T04:57:38;3.70;;;1.40;;
2390;SDS011;22957;50.824;4.360;2022-09-13T05:00:10;2.03;;;1.53;;
2390;SDS011;22957;50.824;4.360;2022-09-13T05:02:57;2.37;;;1.63;;
2390;SDS011;22957;50.824;4.360;2022-09-13T05:05:52;5.10;;;2.00;;
2390;SDS011;22957;50.824;4.360;2022-09-13T05:08:42;1.70;;;1.20;;
2390;SDS011;22957;50.824;4.360;2022-09-13T05:11:54;2.90;;;1.40;;
2390;SDS011;22957;50.824;4.360;2022-09-13T05:14:41;2.90;;;1.50;;
2390;SDS011;22957;50.824;4.360;2022-09-13T05:17:37;2.53;;;1.53;;
2390;SDS011;22957;50.824;4.360;2022-09-13T05:20:05;1.60;;;1.50;;
2390;SDS011;22957;50.824;4.360;2022-09-13T05:22:52;6.90;;;2.10;;
2390;SDS011;22957;50.824;4.360;2022-09-13T05:25:53;2.87;;;1.80;;
2390;SDS011;22957;50.824;4.360;2022-09-13T05:28:59;2.60;;;1.70;;
2390;SDS011;22957;50.824;4.360;2022-09-13T05:31:45;2.57;;;1.60;;
2390;SDS011;22957;50.824;4.360;2022-09-13T05:34:16;6.30;;;2.60;;
2390;SDS011;22957;50.824;4.360;2022-09-13T05:37:04;5.10;;;2.73;;
2390;SDS011;22957;50.824;4.360;2022-09-13T05:39:53;4.60;;;2.87;;
2390;SDS011;22957;50.824;4.360;2022-09-13T05:42:42;6.80;;;3.27;;
2390;SDS011;22957;50.824;4.360;2022-09-13T05:45:48;5.77;;;3.00;;
2390;SDS011;22957;50.824;4.360;2022-09-13T05:48:57;5.07;;;2.50;;
2390;SDS011;22957;50.824;4.360;2022-09-13T05:51:33;3.77;;;3.10;;
2390;SDS011;22957;50.824;4.360;2022-09-13T05:54:11;7.67;;;5.40;;
2390;SDS011;22957;50.824;4.360;2022-09-13T05:57:20;6.23;;;4.40;;
2390;SDS011;22957;50.824;4.360;2022-09-13T05:59:48;8.30;;;4.50;;
2390;SDS011;22957;50.824;4.360;2022-09-13T06:02:32;6.73;;;3.70;;
2390;SDS011;22957;50.824;4.360;2022-09-13T06:05:20;6.00;;;3.80;;
2390;SDS011;22957;50.824;4.360;2022-09-13T06:08:13;8.37;;;3.63;;
2390;SDS011;22957;50.824;4.360;2022-09-13T06:10:56;13.43;;;4.47;;
2390;SDS011;22957;50.824;4.360;2022-09-13T06:13:28;6.33;;;4.30;;
2390;SDS011;22957;50.824;4.360;2022-09-13T06:16:15;7.20;;;3.73;;
2390;SDS011;22957;50.824;4.360;2022-09-13T06:18:42;12.17;;;4.00;;
2390;SDS011;22957;50.824;4.360;2022-09-13T06:21:10;15.20;;;4.50;;
2390;SDS011;22957;50.824;4.360;2022-09-13T06:23:46;5.07;;;3.60;;
2390;SDS011;22957;50.824;4.360;2022-09-13T06:26:30;8.43;;;4.60;;
2390;SDS011;22957;50.824;4.360;2022-09-13T06:29:21;6.20;;;4.20;;
2390;SDS011;22957;50.824;4.360;2022-09-13T06:32:07;7.30;;;4.07;;
2390;SDS011;22957;50.824;4.360;2022-09-13T06:34:33;8.23;;;4.50;;
2390;SDS011;22957;50.824;4.360;2022-09-13T06:37:10;5.40;;;2.97;;
2390;SDS011;22957;50.824;4.360;2022-09-13T06:39:38;17.33;;;5.30;;
2390;SDS011;22957;50.824;4.360;2022-09-13T06:42:05;11.33;;;3.50;;
2390;SDS011;22957;50.824;4.360;2022-09-13T06:44:40;6.50;;;3.70;;
2390;SDS011;22957;50.824;4.360;2022-09-13T06:47:13;5.73;;;3.70;;
2390;SDS011;22957;50.824;4.360;2022-09-13T06:50:04;5.60;;;3.03;;
2390;SDS011;22957;50.824;4.360;2022-09-13T06:52:39;9.60;;;4.20;;
2390;SDS011;22957;50.824;4.360;2022-09-13T06:55:07;9.80;;;5.03;;
2390;SDS011;22957;50.824;4.360;2022-09-13T06:58:14;9.30;;;5.07;;
2390;SDS011;22957;50.824;4.360;2022-09-13T07:01:25;9.00;;;3.90;;
2390;SDS011;22957;50.824;4.360;2022-09-13T07:04:13;11.30;;;5.30;;
2390;SDS011;22957;50.824;4.360;2022-09-13T07:07:21;11.63;;;3.77;;
2390;SDS011;22957;50.824;4.360;2022-09-13T07:10:12;7.40;;;3.40;;
2390;SDS011;22957;50.824;4.360;2022-09-13T07:13:04;9.43;;;3.83;;
2390;SDS011;22957;50.824;4.360;2022-09-13T07:16:09;8.03;;;4.93;;
2390;SDS011;22957;50.824;4.360;2022-09-13T07:19:24;8.60;;;3.80;;
2390;SDS011;22957;50.824;4.360;2022-09-13T07:22:01;12.30;;;4.60;;
2390;SDS011;22957;50.824;4.360;2022-09-13T07:25:08;9.23;;;3.20;;
2390;SDS011;22957;50.824;4.360;2022-09-13T07:27:44;11.57;;;4.20;;
2390;SDS011;22957;50.824;4.360;2022-09-13T07:30:34;13.77;;;3.90;;
2390;SDS011;22957;50.824;4.360;2022-09-13T07:33:29;13.37;;;4.83;;
2390;SDS011;22957;50.824;4.360;2022-09-13T07:36:19;11.77;;;4.50;;
2390;SDS011;22957;50.824;4.360;2022-09-13T07:39:26;6.27;;;3.47;;
2390;SDS011;22957;50.824;4.360;2022-09-13T07:42:00;11.10;;;4.70;;
2390;SDS011;22957;50.824;4.360;2022-09-13T07:44:52;10.40;;;4.23;;
2390;SDS011;22957;50.824;4.360;2022-09-13T07:48:08;8.50;;;3.20;;
2390;SDS011;22957;50.824;4.360;2022-09-13T07:50:34;10.67;;;3.10;;
2390;SDS011;22957;50.824;4.360;2022-09-13T07:53:21;6.53;;;3.50;;
2390;SDS011;22957;50.824;4.360;2022-09-13T07:56:09;8.20;;;2.70;;
2390;SDS011;22957;50.824;4.360;2022-09-13T07:59:07;9.93;;;4.70;;
2390;SDS011;22957;50.824;4.360;2022-09-13T08:01:48;7.67;;;3.00;;
2390;SDS011;22957;50.824;4.360;2022-09-13T08:04:16;6.53;;;3.00;;
2390;SDS011;22957;50.824;4.360;2022-09-13T08:07:05;6.83;;;2.67;;
2390;SDS011;22957;50.824;4.360;2022-09-13T08:09:53;8.17;;;3.13;;
2390;SDS011;22957;50.824;4.360;2022-09-13T08:17:39;7.83;;;2.23;;
2390;SDS011;22957;50.824;4.360;2022-09-13T08:21:04;5.37;;;2.63;;
2390;SDS011;22957;50.824;4.360;2022-09-13T08:23:39;5.07;;;2.30;;
2390;SDS011;22957;50.824;4.360;2022-09-13T08:32:18;6.67;;;3.00;;
2390;SDS011;22957;50.824;4.360;2022-09-13T08:49:39;5.40;;;2.67;;
2390;SDS011;22957;50.824;4.360;2022-09-13T08:55:49;7.77;;;2.53;;
2390;SDS011;22957;50.824;4.360;2022-09-13T08:59:46;10.20;;;3.53;;
2390;SDS011;22957;50.824;4.360;2022-09-13T09:07:39;9.13;;;5.17;;
2390;SDS011;22957;50.824;4.360;2022-09-13T09:20:38;10.00;;;4.80;;
2390;SDS011;22957;50.824;4.360;2022-09-13T09:45:41;13.70;;;5.50;;
2390;SDS011;22957;50.824;4.360;2022-09-13T09:48:53;12.63;;;5.40;;
2390;SDS011;22957;50.824;4.360;2022-09-13T09:52:06;12.53;;;4.50;;
2390;SDS011;22957;50.824;4.360;2022-09-13T09:55:28;9.40;;;3.63;;
2390;SDS011;22957;50.824;4.360;2022-09-13T10:01:13;7.20;;;3.30;;
2390;SDS011;22957;50.824;4.360;2022-09-13T10:09:58;11.00;;;3.00;;
2390;SDS011;22957;50.824;4.360;2022-09-13T10:13:12;9.67;;;3.43;;
2390;SDS011;22957;50.824;4.360;2022-09-13T10:16:26;7.30;;;3.53;;
2390;SDS011;22957;50.824;4.360;2022-09-13T10:19:25;9.20;;;3.20;;
2390;SDS011;22957;50.824;4.360;2022-09-13T10:22:10;8.40;;;4.00;;
2390;SDS011;22957;50.824;4.360;2022-09-13T10:25:37;9.77;;;3.43;;
2390;SDS011;22957;50.824;4.360;2022-09-13T10:28:58;11.63;;;3.47;;
2390;SDS011;22957;50.824;4.360;2022-09-13T10:32:06;7.10;;;3.17;;
2390;SDS011;22957;50.824;4.360;2022-09-13T10:37:30;7.10;;;3.70;;
2390;SDS011;22957;50.824;4.360;2022-09-13T10:40:06;17.03;;;7.20;;
2390;SDS011;22957;50.824;4.360;2022-09-13T10:48:25;10.33;;;3.47;;
2390;SDS011;22957;50.824;4.360;2022-09-13T10:54:15;7.30;;;4.13;;
2390;SDS011;22957;50.824;4.360;2022-09-13T10:59:58;9.10;;;3.10;;
2390;SDS011;22957;50.824;4.360;2022-09-13T11:54:21;7.40;;;2.90;;
2390;SDS011;22957;50.824;4.360;2022-09-13T11:56:56;9.03;;;2.63;;
2390;SDS011;22957;50.824;4.360;2022-09-13T11:59:36;6.80;;;2.40;;
2390;SDS011;22957;50.824;4.360;2022-09-13T12:05:17;5.93;;;3.30;;
2390;SDS011;22957;50.824;4.360;2022-09-13T12:07:48;15.40;;;4.50;;
2390;SDS011;22957;50.824;4.360;2022-09-13T12:13:53;6.13;;;3.07;;
2390;SDS011;22957;50.824;4.360;2022-09-13T12:16:27;17.27;;;4.30;;
2390;SDS011;22957;50.824;4.360;2022-09-13T12:19:12;11.47;;;3.80;;
2390;SDS011;22957;50.824;4.360;2022-09-13T12:21:54;9.63;;;3.10;;
2390;SDS011;22957;50.824;4.360;2022-09-13T12:29:38;5.03;;;2.80;;
2390;SDS011;22957;50.824;4.360;2022-09-13T12:32:18;6.70;;;3.17;;
2390;SDS011;22957;50.824;4.360;2022-09-13T12:43:05;7.43;;;3.17;;
2390;SDS011;22957;50.824;4.360;2022-09-13T12:48:55;8.90;;;3.17;;
2390;SDS011;22957;50.824;4.360;2022-09-13T12:58:07;10.73;;;3.73;;
2390;SDS011;22957;50.824;4.360;2022-09-13T13:03:53;7.33;;;2.57;;
2390;SDS011;22957;50.824;4.360;2022-09-13T13:06:48;5.77;;;3.10;;
2390;SDS011;22957;50.824;4.360;2022-09-13T13:09:54;7.40;;;2.80;;
2390;SDS011;22957;50.824;4.360;2022-09-13T13:12:29;4.53;;;3.00;;
2390;SDS011;22957;50.824;4.360;2022-09-13T13:23:34;9.57;;;3.47;;
2390;SDS011;22957;50.824;4.360;2022-09-13T13:26:06;11.83;;;4.43;;
2390;SDS011;22957;50.824;4.360;2022-09-13T13:29:03;11.10;;;4.33;;
2390;SDS011;22957;50.824;4.360;2022-09-13T13:36:49;11.40;;;3.60;;
2390;SDS011;22957;50.824;4.360;2022-09-13T13:43:27;6.50;;;4.13;;
2390;SDS011;22957;50.824;4.360;2022-09-13T13:48:38;5.47;;;2.97;;
2390;SDS011;22957;50.824;4.360;2022-09-13T13:51:17;4.63;;;3.43;;
2390;SDS011;22957;50.824;4.360;2022-09-13T13:53:53;11.70;;;3.50;;
2390;SDS011;22957;50.824;4.360;2022-09-13T13:56:28;5.50;;;2.90;;
2390;SDS011;22957;50.824;4.360;2022-09-13T13:59:35;3.20;;;2.90;;
2390;SDS011;22957;50.824;4.360;2022-09-13T14:02:02;2.80;;;2.07;;
2390;SDS011;22957;50.824;4.360;2022-09-13T14:13:11;3.77;;;3.00;;
2390;SDS011;22957;50.824;4.360;2022-09-13T14:18:59;8.27;;;2.70;;
2390;SDS011;22957;50.824;4.360;2022-09-13T14:22:11;5.70;;;2.80;;
2390;SDS011;22957;50.824;4.360;2022-09-13T14:24:49;6.50;;;3.03;;
2390;SDS011;22957;50.824;4.360;2022-09-13T14:27:55;7.13;;;2.33;;
2390;SDS011;22957;50.824;4.360;2022-09-13T14:33:01;5.27;;;3.30;;
2390;SDS011;22957;50.824;4.360;2022-09-13T14:35:30;6.10;;;2.60;;
2390;SDS011;22957;50.824;4.360;2022-09-13T14:38:11;7.23;;;4.23;;
2390;SDS011;22957;50.824;4.360;2022-09-13T14:40:51;6.17;;;4.03;;
2390;SDS011;22957;50.824;4.360;2022-09-13T14:43:31;7.00;;;3.63;;
2390;SDS011;22957;50.824;4.360;2022-09-13T14:46:27;6.60;;;4.00;;
2390;SDS011;22957;50.824;4.360;2022-09-13T14:49:19;9.87;;;2.60;;
2390;SDS011;22957;50.824;4.360;2022-09-13T14:51:55;5.83;;;3.30;;
2390;SDS011;22957;50.824;4.360;2022-09-13T14:54:41;8.40;;;4.80;;
2390;SDS011;22957;50.824;4.360;2022-09-13T14:57:33;10.90;;;4.60;;
2390;SDS011;22957;50.824;4.360;2022-09-13T15:00:06;7.70;;;3.50;;
2390;SDS011;22957;50.824;4.360;2022-09-13T15:05:37;5.00;;;3.13;;
2390;SDS011;22957;50.824;4.360;2022-09-13T15:10:55;9.70;;;4.40;;
2390;SDS011;22957;50.824;4.360;2022-09-13T15:13:32;4.57;;;3.60;;
2390;SDS011;22957;50.824;4.360;2022-09-13T15:16:22;7.30;;;4.23;;
2390;SDS011;22957;50.824;4.360;2022-09-13T15:19:15;7.93;;;5.10;;
2390;SDS011;22957;50.824;4.360;2022-09-13T15:24:42;7.97;;;4.17;;
2390;SDS011;22957;50.824;4.360;2022-09-13T15:27:23;6.73;;;4.50;;
2390;SDS011;22957;50.824;4.360;2022-09-13T15:30:29;11.63;;;6.27;;
2390;SDS011;22957;50.824;4.360;2022-09-13T15:33:04;9.80;;;5.87;;
2390;SDS011;22957;50.824;4.360;2022-09-13T15:35:44;7.97;;;5.07;;
2390;SDS011;22957;50.824;4.360;2022-09-13T15:38:26;7.80;;;5.47;;
2390;SDS011;22957;50.824;4.360;2022-09-13T15:43:47;7.73;;;5.90;;
2390;SDS011;22957;50.824;4.360;2022-09-13T15:46:18;7.30;;;5.90;;
2390;SDS011;22957;50.824;4.360;2022-09-13T15:48:50;9.07;;;5.63;;
2390;SDS011;22957;50.824;4.360;2022-09-13T15:51:39;10.10;;;5.63;;
2390;SDS011;22957;50.824;4.360;2022-09-13T15:54:15;14.93;;;4.63;;
2390;SDS011;22957;50.824;4.360;2022-09-13T15:57:26;9.13;;;5.37;;
2390;SDS011;22957;50.824;4.360;2022-09-13T15:59:57;7.27;;;4.93;;
2390;SDS011;22957;50.824;4.360;2022-09-13T16:02:50;7.90;;;4.90;;
2390;SDS011;22957;50.824;4.360;2022-09-13T16:05:20;7.50;;;4.63;;
2390;SDS011;22957;50.824;4.360;2022-09-13T16:07:52;6.50;;;5.13;;
2390;SDS011;22957;50.824;4.360;2022-09-13T16:10:42;5.63;;;3.43;;
2390;SDS011;22957;50.824;4.360;2022-09-13T16:13:09;11.37;;;6.27;;
2390;SDS011;22957;50.824;4.360;2022-09-13T16:15:39;9.63;;;6.50;;
2390;SDS011;22957;50.824;4.360;2022-09-13T16:18:05;6.97;;;5.10;;
2390;SDS011;22957;50.824;4.360;2022-09-13T16:20:32;7.67;;;4.03;;
2390;SDS011;22957;50.824;4.360;2022-09-13T16:22:58;7.27;;;4.50;;
2390;SDS011;22957;50.824;4.360;2022-09-13T16:25:24;13.73;;;4.77;;
2390;SDS011;22957;50.824;4.360;2022-09-13T16:27:49;8.03;;;5.40;;
2390;SDS011;22957;50.824;4.360;2022-09-13T16:30:18;8.50;;;3.97;;
2390;SDS011;22957;50.824;4.360;2022-09-13T16:32:45;7.10;;;3.47;;
2390;SDS011;22957;50.824;4.360;2022-09-13T16:35:14;8.00;;;4.50;;
2390;SDS011;22957;50.824;4.360;2022-09-13T16:38:00;7.50;;;3.63;;
2390;SDS011;22957;50.824;4.360;2022-09-13T16:43:02;5.17;;;3.73;;
2390;SDS011;22957;50.824;4.360;2022-09-13T16:46:10;6.87;;;4.20;;
2390;SDS011;22957;50.824;4.360;2022-09-13T16:49:35;11.83;;;5.10;;
2390;SDS011;22957;50.824;4.360;2022-09-13T16:52:46;5.90;;;3.97;;
2390;SDS011;22957;50.824;4.360;2022-09-13T16:55:34;9.10;;;4.40;;
2390;SDS011;22957;50.824;4.360;2022-09-13T16:58:20;6.70;;;4.20;;
2390;SDS011;22957;50.824;4.360;2022-09-13T17:01:08;9.07;;;5.43;;
2390;SDS011;22957;50.824;4.360;2022-09-13T17:04:01;8.73;;;4.27;;
2390;SDS011;22957;50.824;4.360;2022-09-13T17:06:49;8.70;;;3.23;;
2390;SDS011;22957;50.824;4.360;2022-09-13T17:09:40;6.63;;;3.20;;
2390;SDS011;22957;50.824;4.360;2022-09-13T17:12:12;5.37;;;3.20;;
2390;SDS011;22957;50.824;4.360;2022-09-13T17:44:06;8.27;;;6.30;;
2390;SDS011;22957;50.824;4.360;2022-09-13T17:49:47;5.43;;;4.43;;
2390;SDS011;22957;50.824;4.360;2022-09-13T17:52:24;9.57;;;6.23;;
2390;SDS011;22957;50.824;4.360;2022-09-13T17:54:56;9.60;;;6.03;;
2390;SDS011;22957;50.824;4.360;2022-09-13T17:57:24;11.70;;;6.80;;
2390;SDS011;22957;50.824;4.360;2022-09-13T17:59:52;7.13;;;6.20;;
2390;SDS011;22957;50.824;4.360;2022-09-13T18:02:20;10.57;;;6.40;;
2390;SDS011;22957;50.824;4.360;2022-09-13T18:04:49;10.00;;;6.17;;
2390;SDS011;22957;50.824;4.360;2022-09-13T18:07:18;9.93;;;5.70;;
2390;SDS011;22957;50.824;4.360;2022-09-13T18:09:46;12.07;;;6.27;;
2390;SDS011;22957;50.824;4.360;2022-09-13T18:12:31;9.67;;;6.53;;
2390;SDS011;22957;50.824;4.360;2022-09-13T18:14:58;12.00;;;7.30;;
2390;SDS011;22957;50.824;4.360;2022-09-13T18:17:25;7.30;;;5.67;;
2390;SDS011;22957;50.824;4.360;2022-09-13T18:19:51;11.73;;;6.80;;
2390;SDS011;22957;50.824;4.360;2022-09-13T18:22:17;10.33;;;6.73;;
2390;SDS011;22957;50.824;4.360;2022-09-13T18:24:44;8.17;;;6.97;;
2390;SDS011;22957;50.824;4.360;2022-09-13T18:27:10;10.80;;;6.70;;
2390;SDS011;22957;50.824;4.360;2022-09-13T18:29:36;9.57;;;7.50;;
2390;SDS011;22957;50.824;4.360;2022-09-13T18:32:02;9.17;;;8.10;;
2390;SDS011;22957;50.824;4.360;2022-09-13T18:34:28;14.97;;;8.17;;
2390;SDS011;22957;50.824;4.360;2022-09-13T18:36:54;13.93;;;8.10;;
2390;SDS011;22957;50.824;4.360;2022-09-13T18:39:23;12.80;;;9.17;;
2390;SDS011;22957;50.824;4.360;2022-09-13T18:41:49;10.63;;;7.90;;
2390;SDS011;22957;50.824;4.360;2022-09-13T18:44:15;12.27;;;7.50;;
2390;SDS011;22957;50.824;4.360;2022-09-13T18:46:43;19.10;;;7.40;;
2390;SDS011;22957;50.824;4.360;2022-09-13T18:49:11;14.70;;;8.00;;
2390;SDS011;22957;50.824;4.360;2022-09-13T18:51:40;7.50;;;6.07;;
2390;SDS011;22957;50.824;4.360;2022-09-13T18:54:13;19.23;;;10.07;;
2390;SDS011;22957;50.824;4.360;2022-09-13T18:56:42;8.70;;;5.97;;
2390;SDS011;22957;50.824;4.360;2022-09-13T18:59:08;6.20;;;5.43;;
2390;SDS011;22957;50.824;4.360;2022-09-13T19:01:35;10.67;;;7.90;;
2390;SDS011;22957;50.824;4.360;2022-09-13T19:06:43;7.73;;;5.83;;
2390;SDS011;22957;50.824;4.360;2022-09-13T19:09:11;39.67;;;23.87;;
2390;SDS011;22957;50.824;4.360;2022-09-13T19:11:42;8.33;;;6.20;;
2390;SDS011;22957;50.824;4.360;2022-09-13T19:14:13;13.80;;;5.67;;
2390;SDS011;22957;50.824;4.360;2022-09-13T19:16:46;6.87;;;6.27;;
2390;SDS011;22957;50.824;4.360;2022-09-13T19:19:12;6.87;;;5.57;;
2390;SDS011;22957;50.824;4.360;2022-09-13T19:21:37;9.70;;;6.90;;
2390;SDS011;22957;50.824;4.360;2022-09-13T19:24:03;6.97;;;5.67;;
2390;SDS011;22957;50.824;4.360;2022-09-13T19:26:34;11.10;;;6.83;;
2390;SDS011;22957;50.824;4.360;2022-09-13T19:29:02;7.63;;;6.47;;
2390;SDS011;22957;50.824;4.360;2022-09-13T19:31:34;10.10;;;7.40;;
2390;SDS011;22957;50.824;4.360;2022-09-13T19:34:04;7.60;;;6.37;;
2390;SDS011;22957;50.824;4.360;2022-09-13T19:36:31;7.07;;;5.67;;
2390;SDS011;22957;50.824;4.360;2022-09-13T19:38:58;9.17;;;6.60;;
2390;SDS011;22957;50.824;4.360;2022-09-13T19:41:27;7.80;;;5.97;;
2390;SDS011;22957;50.824;4.360;2022-09-13T19:43:58;12.20;;;7.07;;
2390;SDS011;22957;50.824;4.360;2022-09-13T19:46:30;11.17;;;6.50;;
2390;SDS011;22957;50.824;4.360;2022-09-13T19:49:02;12.63;;;7.17;;
2390;SDS011;22957;50.824;4.360;2022-09-13T19:51:32;5.30;;;4.80;;
2390;SDS011;22957;50.824;4.360;2022-09-13T19:53:59;8.33;;;6.80;;
2390;SDS011;22957;50.824;4.360;2022-09-13T19:56:28;8.97;;;7.60;;
2390;SDS011;22957;50.824;4.360;2022-09-13T19:58:56;15.20;;;6.90;;
2390;SDS011;22957;50.824;4.360;2022-09-13T20:01:25;9.10;;;5.87;;
2390;SDS011;22957;50.824;4.360;2022-09-13T20:03:53;7.03;;;6.00;;
2390;SDS011;22957;50.824;4.360;2022-09-13T20:06:24;6.27;;;5.67;;
2390;SDS011;22957;50.824;4.360;2022-09-13T20:08:54;11.27;;;5.83;;
2390;SDS011;22957;50.824;4.360;2022-09-13T20:11:33;10.17;;;5.80;;
2390;SDS011;22957;50.824;4.360;2022-09-13T20:14:01;8.37;;;5.80;;
2390;SDS011;22957;50.824;4.360;2022-09-13T20:19:12;5.53;;;4.93;;
2390;SDS011;22957;50.824;4.360;2022-09-13T20:21:44;6.37;;;5.80;;
2390;SDS011;22957;50.824;4.360;2022-09-13T20:27:53;7.53;;;5.17;;
2390;SDS011;22957;50.824;4.360;2022-09-13T20:30:21;8.73;;;5.00;;
2390;SDS011;22957;50.824;4.360;2022-09-13T20:33:09;6.80;;;5.40;;
2390;SDS011;22957;50.824;4.360;2022-09-13T20:36:25;6.60;;;4.83;;
2390;SDS011;22957;50.824;4.360;2022-09-13T20:39:40;5.00;;;4.50;;
2390;SDS011;22957;50.824;4.360;2022-09-13T20:42:53;8.73;;;5.97;;
2390;SDS011;22957;50.824;4.360;2022-09-13T20:46:04;11.00;;;5.17;;
2390;SDS011;22957;50.824;4.360;2022-09-13T20:48:43;7.73;;;5.53;;
2390;SDS011;22957;50.824;4.360;2022-09-13T20:51:29;6.60;;;6.00;;
2390;SDS011;22957;50.824;4.360;2022-09-13T20:59:59;9.60;;;7.33;;
2390;SDS011;22957;50.824;4.360;2022-09-13T21:05:38;6.83;;;5.03;;
2390;SDS011;22957;50.824;4.360;2022-09-13T21:13:39;9.27;;;7.83;;
2390;SDS011;22957;50.824;4.360;2022-09-13T21:22:39;15.43;;;9.10;;
2390;SDS011;22957;50.824;4.360;2022-09-13T21:30:10;17.73;;;12.00;;
2390;SDS011;22957;50.824;4.360;2022-09-13T21:43:32;19.50;;;12.93;;
2390;SDS011;22957;50.824;4.360;2022-09-13T21:49:09;18.80;;;13.77;;
2390;SDS011;22957;50.824;4.360;2022-09-13T21:51:45;22.10;;;14.97;;
2390;SDS011;22957;50.824;4.360;2022-09-13T21:54:33;23.80;;;15.60;;
2390;SDS011;22957;50.824;4.360;2022-09-13T21:57:03;21.10;;;16.10;;
2390;SDS011;22957;50.824;4.360;2022-09-13T21:59:34;17.43;;;14.90;;